createdAt,value
2023-04-10T00:00:02.453Z,91.10
2023-04-10T00:02:29.420Z,91.20
2023-04-10T00:04:56.298Z,91.20
2023-04-10T00:07:22.994Z,91.10
2023-04-10T00:09:49.721Z,91.20
2023-04-10T00:12:19.550Z,91.20
2023-04-10T00:45:22.191Z,90.90
2023-04-10T00:56:19.372Z,91.00
2023-04-10T00:58:46.284Z,91.10
2023-04-10T01:01:13.236Z,91.10
2023-04-10T01:03:41.124Z,91.10
2023-04-10T01:06:19.928Z,91.20
2023-04-10T01:08:55.638Z,91.10
2023-04-10T01:11:37.340Z,91.10
2023-04-10T01:14:16.818Z,91.10
2023-04-10T01:16:49.686Z,91.10
2023-04-10T01:19:50.310Z,91.20
2023-04-10T01:22:17.809Z,91.20
2023-04-10T01:24:56.902Z,91.20
2023-04-10T01:27:32.492Z,91.20
2023-04-10T01:29:59.858Z,91.10
2023-04-10T01:32:28.290Z,91.10
2023-04-10T01:34:57.448Z,91.10
2023-04-10T01:37:27.859Z,91.10
2023-04-10T01:40:00.410Z,91.10
2023-04-10T01:42:30.757Z,91.10
2023-04-10T01:44:57.910Z,91.10
2023-04-10T01:47:25.529Z,91.10
2023-04-10T01:49:53.492Z,91.10
2023-04-10T01:52:21.262Z,91.10
2023-04-10T01:54:51.330Z,91.10
2023-04-10T01:57:18.086Z,91.10
2023-04-10T01:59:44.824Z,91.10
2023-04-10T02:02:12.175Z,91.10
2023-04-10T02:04:39.513Z,91.10
2023-04-10T02:07:11.023Z,91.10
2023-04-10T02:09:40.846Z,91.10
2023-04-10T02:12:11.498Z,91.10
2023-04-10T02:14:42.955Z,91.20
2023-04-10T02:17:10.607Z,91.00
2023-04-10T02:19:37.577Z,91.00
2023-04-10T02:22:06.115Z,91.00
2023-04-10T02:24:33.725Z,91.10
2023-04-10T02:27:01.527Z,91.00
2023-04-10T02:29:28.259Z,91.00
2023-04-10T02:31:55.039Z,91.00
2023-04-10T02:34:21.730Z,91.00
2023-04-10T02:36:48.435Z,91.00
2023-04-10T02:39:15.438Z,91.00
2023-04-10T02:41:42.153Z,91.00
2023-04-10T02:44:08.882Z,91.00
2023-04-10T02:46:35.637Z,91.00
2023-04-10T02:49:02.415Z,91.00
2023-04-10T02:51:29.082Z,91.00
2023-04-10T02:53:56.008Z,91.00
2023-04-10T02:56:22.820Z,91.00
2023-04-10T02:58:49.536Z,90.90
2023-04-10T03:01:16.299Z,91.00
2023-04-10T03:03:43.090Z,91.00
2023-04-10T03:06:10.608Z,90.90
2023-04-10T03:08:37.294Z,91.00
2023-04-10T03:11:04.213Z,90.90
2023-04-10T03:13:31.298Z,90.90
2023-04-10T03:15:58.006Z,90.90
2023-04-10T03:18:24.744Z,90.80
2023-04-10T03:20:51.550Z,90.80
2023-04-10T03:23:18.345Z,91.10
2023-04-10T03:25:45.400Z,90.80
2023-04-10T03:28:12.157Z,90.80
2023-04-10T03:30:39.254Z,90.80
2023-04-10T03:33:06.021Z,90.80
2023-04-10T03:35:32.815Z,90.80
2023-04-10T03:37:59.552Z,90.70
2023-04-10T03:40:26.265Z,90.70
2023-04-10T03:42:52.925Z,90.70
2023-04-10T03:45:19.706Z,90.80
2023-04-10T03:47:46.576Z,90.80
2023-04-10T03:50:14.367Z,90.80
2023-04-10T03:52:41.458Z,90.80
2023-04-10T03:55:08.537Z,90.80
2023-04-10T03:57:35.430Z,90.80
2023-04-10T04:00:02.904Z,90.80
2023-04-10T04:02:29.777Z,90.70
2023-04-10T04:04:57.059Z,90.70
2023-04-10T04:07:23.766Z,90.70
2023-04-10T04:09:51.273Z,90.60
2023-04-10T04:12:17.991Z,90.60
2023-04-10T04:14:45.196Z,90.60
2023-04-10T04:17:12.260Z,90.50
2023-04-10T04:19:38.997Z,90.40
2023-04-10T04:22:05.882Z,90.40
2023-04-10T04:24:32.618Z,90.40
2023-04-10T04:26:59.347Z,90.40
2023-04-10T04:29:26.094Z,90.40
2023-04-10T04:31:53.039Z,90.40
2023-04-10T04:34:19.799Z,90.40
2023-04-10T04:36:46.515Z,90.50
2023-04-10T04:39:13.592Z,90.50
2023-04-10T04:41:40.302Z,90.50
2023-04-10T04:44:07.082Z,90.50
2023-04-10T04:46:33.802Z,90.50
2023-04-10T04:49:00.802Z,90.50
2023-04-10T04:51:27.461Z,90.60
2023-04-10T04:53:54.449Z,90.60
2023-04-10T04:56:21.455Z,90.60
2023-04-10T04:58:48.554Z,90.70
2023-04-10T05:01:15.746Z,90.70
2023-04-10T05:03:42.673Z,90.60
2023-04-10T05:06:09.490Z,90.70
2023-04-10T05:08:36.341Z,90.70
2023-04-10T05:11:03.076Z,90.70
2023-04-10T05:13:29.794Z,90.60
2023-04-10T05:15:56.630Z,90.60
2023-04-10T05:18:23.905Z,90.60
2023-04-10T05:20:50.891Z,90.50
2023-04-10T05:23:17.692Z,90.50
2023-04-10T05:25:44.532Z,90.70
2023-04-10T05:28:11.225Z,90.30
2023-04-10T05:30:37.936Z,90.30
2023-04-10T05:33:04.702Z,90.20
2023-04-10T05:35:31.555Z,90.10
2023-04-10T05:37:58.983Z,90.10
2023-04-10T05:40:26.296Z,90.00
2023-04-10T05:42:53.042Z,90.10
2023-04-10T05:45:19.802Z,90.00
2023-04-10T05:47:46.592Z,89.70
2023-04-10T05:50:13.476Z,89.70
2023-04-10T05:52:40.199Z,89.50
2023-04-10T05:55:07.609Z,89.50
2023-04-10T05:57:34.323Z,89.40
2023-04-10T06:00:01.247Z,88.90
2023-04-10T06:02:28.328Z,89.60
2023-04-10T06:04:55.976Z,88.70
2023-04-10T06:07:22.766Z,88.50
2023-04-10T06:09:49.924Z,88.70
2023-04-10T06:12:17.192Z,88.50
2023-04-10T06:14:43.904Z,88.10
2023-04-10T06:17:11.028Z,87.90
2023-04-10T06:19:37.796Z,87.90
2023-04-10T06:22:04.520Z,87.70
2023-04-10T06:24:31.222Z,87.40
2023-04-10T06:26:58.122Z,87.60
2023-04-10T06:29:25.237Z,87.50
2023-04-10T06:31:52.186Z,87.10
2023-04-10T06:34:19.339Z,87.30
2023-04-10T06:36:46.112Z,86.70
2023-04-10T06:39:13.083Z,87.50
2023-04-10T06:41:39.785Z,86.60
2023-04-10T06:44:06.534Z,86.60
2023-04-10T06:46:33.354Z,86.50
2023-04-10T06:49:00.156Z,86.40
2023-04-10T06:51:27.738Z,85.80
2023-04-10T06:53:54.563Z,86.10
2023-04-10T06:56:21.272Z,85.60
2023-04-10T06:58:47.949Z,84.80
2023-04-10T07:01:17.707Z,84.60
2023-04-10T07:03:44.974Z,84.50
2023-04-10T07:06:12.325Z,83.60
2023-04-10T07:08:39.058Z,83.00
2023-04-10T07:11:05.996Z,82.60
2023-04-10T07:13:32.743Z,81.80
2023-04-10T07:15:59.463Z,82.60
2023-04-10T07:18:26.211Z,81.60
2023-04-10T07:20:53.986Z,81.30
2023-04-10T07:23:21.379Z,80.10
2023-04-10T07:25:48.139Z,79.10
2023-04-10T07:28:14.986Z,78.90
2023-04-10T07:30:41.999Z,79.40
2023-04-10T07:33:08.959Z,78.10
2023-04-10T07:35:36.650Z,77.10
2023-04-10T07:38:04.506Z,75.80
2023-04-10T07:40:31.230Z,75.50
2023-04-10T07:42:57.985Z,75.30
2023-04-10T07:45:25.178Z,75.10
2023-04-10T07:47:52.145Z,74.10
2023-04-10T07:50:19.326Z,73.00
2023-04-10T07:52:46.369Z,73.50
2023-04-10T07:55:13.331Z,72.40
2023-04-10T07:57:42.121Z,71.90
2023-04-10T08:00:09.786Z,71.90
2023-04-10T08:02:36.845Z,71.70
2023-04-10T08:05:04.064Z,71.90
2023-04-10T08:07:31.332Z,70.00
2023-04-10T08:09:58.050Z,70.20
2023-04-10T08:12:24.943Z,71.60
2023-04-10T08:14:52.064Z,71.20
2023-04-10T08:17:18.795Z,69.20
2023-04-10T08:19:45.633Z,69.70
2023-04-10T08:22:12.524Z,69.00
2023-04-10T08:24:39.239Z,69.80
2023-04-10T08:27:05.934Z,69.30
2023-04-10T08:29:32.672Z,69.10
2023-04-10T08:32:01.022Z,69.40
2023-04-10T08:34:28.157Z,66.20
2023-04-10T08:36:55.333Z,65.80
2023-04-10T08:39:22.200Z,64.00
2023-04-10T08:41:49.096Z,66.00
2023-04-10T08:44:16.248Z,64.20
2023-04-10T08:46:45.344Z,63.00
2023-04-10T08:49:18.805Z,62.90
2023-04-10T08:51:56.251Z,63.00
2023-04-10T08:54:38.006Z,62.10
2023-04-10T08:57:08.565Z,62.90
2023-04-10T08:59:36.574Z,62.40
2023-04-10T09:02:03.481Z,60.00
2023-04-10T09:04:30.596Z,59.70
2023-04-10T09:06:57.458Z,62.00
2023-04-10T09:09:24.165Z,61.60
2023-04-10T09:11:55.315Z,60.60
2023-04-10T09:14:23.499Z,61.80
2023-04-10T09:16:51.740Z,59.50
2023-04-10T09:19:32.020Z,60.20
2023-04-10T09:21:59.031Z,59.60
2023-04-10T09:24:26.296Z,59.40
2023-04-10T09:26:53.192Z,60.90
2023-04-10T09:29:20.232Z,59.40
2023-04-10T09:31:47.081Z,59.80
2023-04-10T09:34:17.258Z,58.00
2023-04-10T09:36:49.742Z,58.60
2023-04-10T09:39:16.647Z,59.30
2023-04-10T09:41:49.643Z,60.90
2023-04-10T09:44:29.351Z,56.90
2023-04-10T09:46:56.232Z,58.90
2023-04-10T09:49:23.639Z,56.80
2023-04-10T09:51:50.371Z,59.30
2023-04-10T09:54:17.803Z,58.80
2023-04-10T09:56:46.034Z,58.70
2023-04-10T09:59:14.287Z,60.50
2023-04-10T10:01:42.333Z,61.00
2023-04-10T10:04:09.498Z,61.10
2023-04-10T10:06:38.510Z,59.30
2023-04-10T10:09:05.791Z,59.20
2023-04-10T10:11:35.931Z,57.80
2023-04-10T10:14:06.913Z,54.90
2023-04-10T10:16:50.341Z,55.90
2023-04-10T10:19:21.504Z,55.30
2023-04-10T10:21:48.622Z,55.90
2023-04-10T10:24:16.068Z,56.80
2023-04-10T10:26:43.583Z,55.40
2023-04-10T10:29:14.092Z,57.00
2023-04-10T10:31:41.412Z,56.20
2023-04-10T10:34:09.685Z,57.70
2023-04-10T10:36:37.385Z,58.70
2023-04-10T10:39:36.944Z,56.10
2023-04-10T10:42:19.033Z,54.60
2023-04-10T10:44:59.433Z,54.50
2023-04-10T10:47:30.987Z,54.20
2023-04-10T10:50:02.835Z,55.20
2023-04-10T10:52:42.072Z,55.40
2023-04-10T10:55:36.920Z,55.10
2023-04-10T10:58:08.352Z,54.90
2023-04-10T11:00:50.225Z,52.90
2023-04-10T11:03:17.023Z,51.70
2023-04-10T11:05:58.914Z,54.40
2023-04-10T11:09:01.294Z,53.70
2023-04-10T11:11:28.004Z,52.10
2023-04-10T11:13:57.804Z,52.40
2023-04-10T11:16:43.628Z,53.80
2023-04-10T11:19:16.470Z,53.50
2023-04-10T11:22:04.552Z,52.10
2023-04-10T11:24:55.440Z,53.20
2023-04-10T11:27:39.451Z,52.50
2023-04-10T11:30:30.515Z,53.70
2023-04-10T11:32:58.266Z,55.80
2023-04-10T11:35:27.008Z,52.40
2023-04-10T11:38:12.116Z,51.00
2023-04-10T11:40:59.901Z,52.20
2023-04-10T11:43:26.686Z,49.80
2023-04-10T11:46:04.590Z,52.30
2023-04-10T11:48:31.926Z,50.00
2023-04-10T11:51:00.068Z,49.10
2023-04-10T11:53:27.204Z,48.80
2023-04-10T11:55:54.023Z,49.80
2023-04-10T11:58:25.589Z,48.20
2023-04-10T12:01:05.010Z,48.00
2023-04-10T12:03:39.806Z,47.90
2023-04-10T12:06:12.343Z,44.90
2023-04-10T12:08:51.564Z,46.00
2023-04-10T12:11:25.447Z,49.00
2023-04-10T12:13:57.057Z,49.30
2023-04-10T12:16:25.305Z,49.00
2023-04-10T12:18:52.744Z,50.70
2023-04-10T12:21:20.353Z,50.30
2023-04-10T12:23:47.035Z,51.20
2023-04-10T12:26:16.254Z,49.90
2023-04-10T12:28:53.655Z,47.80
2023-04-10T12:31:36.322Z,46.60
2023-04-10T12:34:05.319Z,47.50
2023-04-10T12:36:34.720Z,45.10
2023-04-10T12:39:03.170Z,48.70
2023-04-10T12:41:31.866Z,47.60
2023-04-10T12:44:13.081Z,45.20
2023-04-10T12:46:41.481Z,46.20
2023-04-10T12:49:13.283Z,50.00
2023-04-10T12:51:44.787Z,49.40
2023-04-10T12:54:11.696Z,48.20
2023-04-10T12:56:42.689Z,48.70
2023-04-10T12:59:09.467Z,45.60
2023-04-10T13:01:38.777Z,46.60
2023-04-10T13:04:05.835Z,46.20
2023-04-10T13:06:32.778Z,46.60
2023-04-10T13:08:59.491Z,45.70
2023-04-10T13:11:26.186Z,47.70
2023-04-10T13:13:52.907Z,46.90
2023-04-10T13:16:19.625Z,48.70
2023-04-10T13:18:46.493Z,49.10
2023-04-10T13:21:18.303Z,47.40
2023-04-10T13:23:45.186Z,49.90
2023-04-10T13:26:11.868Z,47.80
2023-04-10T13:28:38.574Z,47.50
2023-04-10T13:31:05.361Z,47.70
2023-04-10T13:33:32.103Z,48.20
2023-04-10T13:35:58.856Z,49.80
2023-04-10T13:38:25.773Z,47.90
2023-04-10T13:40:53.409Z,46.10
2023-04-10T13:43:20.225Z,48.00
2023-04-10T13:45:46.983Z,46.50
2023-04-10T13:48:16.058Z,45.60
2023-04-10T13:50:43.320Z,45.80
2023-04-10T13:53:10.547Z,47.30
2023-04-10T13:55:38.000Z,44.70
2023-04-10T13:58:04.860Z,45.30
2023-04-10T14:00:31.585Z,45.90
2023-04-10T14:02:58.521Z,48.60
2023-04-10T14:05:25.468Z,47.30
2023-04-10T14:07:56.799Z,44.70
2023-04-10T14:10:24.156Z,44.10
2023-04-10T14:12:51.098Z,43.20
2023-04-10T14:15:18.011Z,45.90
2023-04-10T14:17:44.803Z,44.70
2023-04-10T14:20:11.754Z,46.40
2023-04-10T14:22:38.498Z,47.20
2023-04-10T14:25:13.102Z,44.60
2023-04-10T14:27:43.808Z,44.40
2023-04-10T14:30:11.138Z,45.10
2023-04-10T14:32:41.171Z,45.50
2023-04-10T14:35:08.855Z,43.30
2023-04-10T14:37:35.638Z,41.80
2023-04-10T14:40:04.919Z,45.00
2023-04-10T14:42:31.691Z,44.00
2023-04-10T14:45:01.277Z,41.10
2023-04-10T14:47:28.117Z,42.20
2023-04-10T14:49:54.899Z,44.70
2023-04-10T14:52:21.662Z,43.00
2023-04-10T14:54:48.402Z,42.50
2023-04-10T14:57:15.744Z,42.80
2023-04-10T14:59:42.458Z,42.60
2023-04-10T15:02:09.264Z,43.60
2023-04-10T15:04:36.066Z,42.80
2023-04-10T15:07:03.427Z,45.10
2023-04-10T15:09:30.294Z,44.60
2023-04-10T15:11:57.014Z,43.20
2023-04-10T15:14:23.786Z,42.60
2023-04-10T15:16:53.440Z,45.70
2023-04-10T15:19:21.205Z,45.00
2023-04-10T15:21:48.049Z,43.90
2023-04-10T15:24:14.839Z,42.00
2023-04-10T15:26:45.750Z,42.20
2023-04-10T15:29:13.495Z,43.00
2023-04-10T15:31:40.989Z,42.60
2023-04-10T15:34:09.068Z,43.60
2023-04-10T15:36:35.815Z,44.10
2023-04-10T15:39:03.745Z,45.00
2023-04-10T15:41:31.726Z,45.10
2023-04-10T15:43:58.825Z,46.30
2023-04-10T15:46:26.086Z,46.00
2023-04-10T15:48:53.033Z,45.00
2023-04-10T15:51:20.620Z,46.60
2023-04-10T15:53:47.338Z,46.00
2023-04-10T15:56:16.015Z,44.90
2023-04-10T15:58:43.143Z,45.80
2023-04-10T16:01:09.911Z,45.20
2023-04-10T16:03:36.794Z,47.50
2023-04-10T16:06:04.222Z,46.40
2023-04-10T16:08:31.028Z,46.40
2023-04-10T16:10:57.714Z,46.20
2023-04-10T16:13:24.502Z,46.70
2023-04-10T16:15:51.607Z,46.40
2023-04-10T16:18:18.381Z,46.70
2023-04-10T16:20:45.207Z,47.60
2023-04-10T16:23:11.896Z,47.40
2023-04-10T16:25:38.608Z,47.60
2023-04-10T16:28:07.951Z,47.50
2023-04-10T16:30:35.656Z,48.60
2023-04-10T16:33:03.142Z,48.10
2023-04-10T16:35:30.061Z,48.40
2023-04-10T16:37:56.869Z,48.70
2023-04-10T16:40:23.703Z,48.60
2023-04-10T16:42:50.414Z,49.50
2023-04-10T16:45:17.230Z,48.90
2023-04-10T16:47:45.966Z,49.70
2023-04-10T16:50:12.770Z,49.70
2023-04-10T16:52:39.472Z,49.10
2023-04-10T16:55:06.625Z,49.30
2023-04-10T16:57:33.464Z,49.10
2023-04-10T17:00:00.488Z,50.00
2023-04-10T17:02:28.344Z,49.90
2023-04-10T17:04:55.942Z,50.10
2023-04-10T17:07:23.583Z,50.50
2023-04-10T17:09:50.386Z,50.50
2023-04-10T17:12:17.174Z,50.70
2023-04-10T17:14:44.092Z,50.80
2023-04-10T17:17:10.866Z,51.00
2023-04-10T17:19:38.528Z,51.00
2023-04-10T17:22:06.840Z,51.20
2023-04-10T17:24:33.538Z,51.40
2023-04-10T17:27:02.097Z,51.60
2023-04-10T17:29:28.889Z,51.80
2023-04-10T17:31:55.631Z,51.90
2023-04-10T17:34:22.424Z,51.60
2023-04-10T17:36:49.674Z,51.90
2023-04-10T17:39:16.612Z,51.90
2023-04-10T17:41:43.257Z,51.70
2023-04-10T17:44:10.614Z,51.40
2023-04-10T17:46:37.349Z,51.40
2023-04-10T17:49:04.558Z,51.40
2023-04-10T17:51:31.709Z,51.60
2023-04-10T17:53:58.710Z,51.70
2023-04-10T17:56:26.135Z,51.90
2023-04-10T17:58:54.938Z,52.00
2023-04-10T18:01:23.034Z,52.10
2023-04-10T18:03:50.132Z,52.00
2023-04-10T18:06:16.926Z,52.20
2023-04-10T18:08:43.603Z,52.20
2023-04-10T18:11:10.262Z,52.40
2023-04-10T18:13:36.987Z,52.40
2023-04-10T18:16:03.903Z,52.60
2023-04-10T18:18:30.804Z,52.50
2023-04-10T18:20:57.555Z,52.50
2023-04-10T18:23:25.808Z,52.40
2023-04-10T18:25:55.875Z,52.60
2023-04-10T18:28:23.854Z,52.50
2023-04-10T18:30:56.475Z,52.50
2023-04-10T18:33:24.258Z,52.60
2023-04-10T18:35:57.100Z,52.60
2023-04-10T18:38:24.869Z,52.60
2023-04-10T18:40:55.964Z,52.70
2023-04-10T18:43:25.396Z,52.80
2023-04-10T18:45:52.164Z,52.90
2023-04-10T18:48:18.937Z,53.00
2023-04-10T18:50:45.599Z,53.10
2023-04-10T18:53:12.332Z,53.30
2023-04-10T18:55:39.068Z,53.70
2023-04-10T18:58:05.768Z,53.50
2023-04-10T19:00:33.992Z,53.60
2023-04-10T19:03:00.918Z,53.70
2023-04-10T19:05:32.304Z,53.90
2023-04-10T19:08:04.265Z,54.10
2023-04-10T19:10:32.418Z,54.20
2023-04-10T19:12:59.171Z,54.30
2023-04-10T19:15:26.051Z,54.50
2023-04-10T19:17:53.744Z,54.60
2023-04-10T19:20:48.933Z,55.00
2023-04-10T19:23:07.890Z,55.20
2023-04-10T19:25:34.615Z,55.30
2023-04-10T19:28:01.418Z,55.50
2023-04-10T19:30:28.712Z,55.50
2023-04-10T19:32:56.041Z,55.60
2023-04-10T19:35:22.967Z,55.80
2023-04-10T19:37:49.850Z,56.00
2023-04-10T19:40:18.226Z,56.10
2023-04-10T19:42:45.348Z,56.30
2023-04-10T19:45:12.744Z,56.20
2023-04-10T19:47:39.622Z,56.50
2023-04-10T19:50:06.969Z,56.40
2023-04-10T19:52:33.753Z,56.60
2023-04-10T19:55:00.966Z,56.60
2023-04-10T19:57:27.725Z,57.00
2023-04-10T19:59:54.474Z,56.60
2023-04-10T20:02:22.782Z,56.70
2023-04-10T20:04:50.090Z,56.80
2023-04-10T20:07:16.865Z,56.80
2023-04-10T20:09:43.623Z,57.00
2023-04-10T20:12:10.659Z,56.80
2023-04-10T20:14:38.357Z,56.70
2023-04-10T20:17:05.226Z,56.40
2023-04-10T20:19:31.944Z,57.00
2023-04-10T20:22:01.585Z,56.10
2023-04-10T20:24:29.020Z,55.90
2023-04-10T20:26:57.105Z,55.90
2023-04-10T20:29:23.881Z,55.80
2023-04-10T20:31:50.614Z,55.90
2023-04-10T20:34:17.531Z,56.00
2023-04-10T20:36:44.238Z,56.00
2023-04-10T20:39:10.971Z,56.10
2023-04-10T20:41:37.820Z,56.20
2023-04-10T20:44:04.570Z,56.30
2023-04-10T20:46:31.302Z,56.20
2023-04-10T20:48:59.313Z,56.50
2023-04-10T20:51:28.482Z,56.50
2023-04-10T20:53:55.216Z,56.70
2023-04-10T20:56:27.277Z,56.70
2023-04-10T20:59:03.516Z,56.60
2023-04-10T21:01:30.350Z,56.90
2023-04-10T21:03:58.682Z,57.10
2023-04-10T21:06:26.471Z,57.30
2023-04-10T21:08:53.416Z,57.40
2023-04-10T21:11:21.977Z,57.70
2023-04-10T21:13:49.197Z,57.90
2023-04-10T21:16:16.045Z,58.80
2023-04-10T21:18:42.792Z,59.30
2023-04-10T21:21:09.618Z,59.40
2023-04-10T21:23:36.677Z,59.60
2023-04-10T21:26:03.444Z,60.20
2023-04-10T21:28:30.218Z,59.80
2023-04-10T21:30:57.014Z,60.00
2023-04-10T21:33:23.748Z,60.50
2023-04-10T21:35:50.505Z,60.80
2023-04-10T21:38:17.274Z,60.80
2023-04-10T21:40:53.626Z,61.40
2023-04-10T21:43:20.859Z,62.10
2023-04-10T21:45:47.839Z,62.40
2023-04-10T21:48:14.650Z,62.90
2023-04-10T21:50:41.492Z,63.00
2023-04-10T21:53:08.221Z,63.30
2023-04-10T21:55:34.967Z,63.50
2023-04-10T21:58:01.850Z,64.10
2023-04-10T22:00:28.977Z,64.20
2023-04-10T22:02:56.450Z,64.80
2023-04-10T22:05:24.403Z,64.90
2023-04-10T22:07:52.171Z,65.30
2023-04-10T22:10:19.272Z,65.60
2023-04-10T22:12:48.605Z,65.60
2023-04-10T22:15:16.274Z,65.90
2023-04-10T22:17:43.099Z,65.90
2023-04-10T22:20:10.701Z,66.00
2023-04-10T22:22:37.475Z,66.00
2023-04-10T22:25:04.528Z,66.40
2023-04-10T22:27:32.348Z,66.30
2023-04-10T22:30:03.917Z,67.10
2023-04-10T22:32:32.230Z,67.40
2023-04-10T22:34:59.714Z,67.00
2023-04-10T22:37:27.101Z,67.00
2023-04-10T22:39:56.022Z,67.40
2023-04-10T22:42:23.302Z,67.70
2023-04-10T22:44:50.055Z,68.20
2023-04-10T22:47:16.785Z,68.10
2023-04-10T22:49:43.484Z,68.50
2023-04-10T22:52:10.241Z,68.50
2023-04-10T22:54:36.977Z,68.50
2023-04-10T22:57:04.251Z,69.10
2023-04-10T22:59:30.990Z,69.30
2023-04-10T23:01:57.735Z,69.10
2023-04-10T23:04:24.583Z,69.80
2023-04-10T23:06:51.406Z,69.70
2023-04-10T23:09:18.157Z,69.90
2023-04-10T23:11:46.061Z,70.20
2023-04-10T23:14:13.006Z,70.20
2023-04-10T23:16:39.738Z,70.30
2023-04-10T23:19:06.481Z,70.20
2023-04-10T23:21:33.240Z,70.00
2023-04-10T23:23:59.968Z,70.20
2023-04-10T23:26:26.762Z,70.00
2023-04-10T23:28:53.841Z,70.20
2023-04-10T23:31:20.633Z,69.90
2023-04-10T23:33:47.384Z,70.10
2023-04-10T23:36:14.102Z,70.20
2023-04-10T23:38:40.998Z,70.40
2023-04-10T23:41:07.972Z,70.60
2023-04-10T23:43:34.727Z,71.10
2023-04-10T23:46:01.544Z,72.00
2023-04-10T23:48:28.427Z,72.30
2023-04-10T23:51:07.883Z,71.30
2023-04-10T23:53:35.182Z,73.50
2023-04-10T23:56:02.080Z,73.40
2023-04-10T23:58:28.891Z,73.40
